Fort St. James, British Columbia

Past 24 Hour Conditions

This table is a summary of hourly weather conditions for the past 24 hours. This summary includes the following parameters: temperature, humidity, dew point, wind speed and direction, air pressure, visibility and/or wind chill and humidex.
Date / Time
(MST)
Conditions Temp (°F) Humidity (%) Dew Point (°F) Wind (mph) Pressure (inches) Vis (mi) Wind Chill
23 April 2014
14:00 N/A 46   48 27 SW 3 29.7 N/A *
13:00 N/A 44 50 27 W 4 29.7 N/A *
12:00 N/A 41 57 27 SW 6 29.7 N/A *
11:00 N/A 41 63 30 WSW 3 29.7 N/A *
10:00 N/A 38 75 31 WSW 3 29.7 N/A *
9:00 N/A 36 81 30 SW 5 29.7 N/A *
8:00 N/A 33 89 30 calm 29.7 N/A *
7:00 N/A 30 95 29 calm 29.8 N/A *
6:00 N/A 29   96 28 calm 29.7 N/A *
5:00 N/A 29   94 28 calm 29.7 N/A *
4:00 N/A 29   94 27 calm 29.7 N/A 28
3:00 N/A 32 88 29 calm 29.7 N/A 31
2:00 N/A 38 74 30 WNW 3 29.7 N/A *
1:00 N/A 31 96 30 calm 29.7 N/A *
00:00 N/A 31 96 30 calm 29.7 N/A 30
22 April 2014
23:00 N/A 32 94 31 NNE 2 29.7 N/A *
22:00 N/A 34 93 32 NNE 2 29.7 N/A *
21:00 N/A 39 85 34 calm 29.7 N/A *
20:00 N/A 42 74 34 calm 29.7 N/A *
19:00 N/A 43 69 33 calm 29.7 N/A *
18:00 N/A 41 77 35 calm 29.7 N/A *
17:00 N/A 43 76 36 calm 29.7 N/A *
16:00 N/A 39 82 34 SSE 2 29.7 N/A *
15:00 N/A 38 85 34 calm 29.7 N/A *
14:00 N/A 37 90 34 calm 29.7 N/A *
N/A
Not available
 ↑ 
Highest temperature
 ↓ 
Lowest temperature
*
Value not significant.

If you require additional historical weather information, please visit Climate Data Online.